This is the latest recevied weather packets stored in our database for station/object WC4PEM. If no packets are shown the sender has not sent any weather packets the latest 1 day(s).
| Time | Temp. | Humidity | Pressure | Rain* | Wind** | Luminosity | Snow |
|---|---|---|---|---|---|---|---|
| 1778027366 | 25.56° C | 62% | 1014.1 hPa | 0 mm | 4.92 m/s, 102° | - | - |
| 1778027066 | 25.56° C | 62% | 1014 hPa | 0 mm | 5.81 m/s, 88° | - | - |
| 1778026766 | 25.56° C | 61% | 1014 hPa | 0 mm | 6.26 m/s, 104° | - | - |
| 1778026700 | 26.11° C | 62% | 1014 hPa | 0 mm | 6.26 m/s, 110° | - | - |
| 1778026509 | 26.11° C | 62% | 1014 hPa | 0 mm | 6.26 m/s, 110° | - | - |
| 1778026466 | 26.11° C | 62% | 1014 hPa | 0 mm | 5.81 m/s, 117° | - | - |
| 1778026204 | 26.11° C | 61% | 1013.8 hPa | 0 mm | 6.26 m/s, 104° | - | - |
| 1778026166 | 26.11° C | 62% | 1014 hPa | 0 mm | 6.26 m/s, 110° | - | - |
| 1778025866 | 26.11° C | 61% | 1013.9 hPa | 0 mm | 6.71 m/s, 95° | - | - |
| 1778025566 | 26.11° C | 61% | 1013.8 hPa | 0 mm | 6.26 m/s, 104° | - | - |
| 1778025266 | 26.67° C | 61% | 1013.8 hPa | 0 mm | 6.71 m/s, 115° | - | - |
| 1778024966 | 26.67° C | 60% | 1013.7 hPa | 0 mm | 6.26 m/s, 90° | - | - |
| 1778024666 | 27.22° C | 59% | 1013.7 hPa | 0 mm | 6.26 m/s, 121° | - | - |
| 1778024616 | 27.22° C | 59% | 1013.5 hPa | 0 mm | 6.71 m/s, 87° | - | - |
| 1778024366 | 27.22° C | 59% | 1013.5 hPa | 0 mm | 6.71 m/s, 87° | - | - |
| 1778024066 | 27.78° C | 58% | 1013.5 hPa | 0 mm | 6.71 m/s, 98° | - | - |
| 1778023822 | 28.33° C | 55% | 1013.5 hPa | 0 mm | 5.36 m/s, 84° | - | - |
| 1778023767 | 27.78° C | 57% | 1013.5 hPa | 0 mm | 6.26 m/s, 78° | - | - |
| 1778023467 | 28.33° C | 55% | 1013.5 hPa | 0 mm | 5.36 m/s, 84° | - | - |
| 1778023317 | 28.33° C | 55% | 1013.5 hPa | 0 mm | 5.36 m/s, 93° | - | - |
| 1778023167 | 28.33° C | 55% | 1013.5 hPa | 0 mm | 5.36 m/s, 93° | - | - |
| 1778023091 | 28.89° C | 54% | 1013.4 hPa | 0 mm | 4.92 m/s, 97° | - | - |
| 1778022867 | 28.89° C | 54% | 1013.4 hPa | 0 mm | 4.92 m/s, 97° | - | - |
| 1778022676 | 28.89° C | 54% | 1013.4 hPa | 0 mm | 4.92 m/s, 71° | - | - |
| 1778022567 | 28.89° C | 54% | 1013.4 hPa | 0 mm | 4.92 m/s, 71° | - | - |
* Rain latest hour (hover to see other rain measurements)
** Current wind speed in m/s (hover to see current wind gust speed)